MFX3304 OEJN-UZTT
Flight info
| Callsign | MFX3304 |
|---|---|
| Flight time | N/A |
| Altitude | 39000 |
| Route | EGREP2W/34C EGREP B417 GAS L308 DAROR P559 TOMSO/N0495F310 P559 KIVUS/N0486F350 P559 VUTEB/N0474F390 DCT IVURO/N0488F350 M677 LALDO/N0474F390 B505 PG J215 ATRIS G325 SAJAN/N0481F400 A466 SITAX M875 AMDAR/K0880F400 DCT OGNOB/K0870F390 M168 KUFIM KUFIM2W |
| Aircraft | A333/H-SDE3GHIJ2J3J5M1RVWXY/LB2D1 |
Departure
| Time | N/A |
|---|---|
| Airport | King Abdulaziz International Airport (OEJN) |
Arrival
| Time | 2026-05-07 21:21 |
|---|---|
| Airport | Tashkent International Airport (UZTT) |
| Time | Latitude | Longitude | Altitude | Speed | Heading |
|---|---|---|---|---|---|
| 2026-05-07 20:18 | 35.65806 | 68.40324 | 38838 ft | 429 kts | 327° |
| 2026-05-07 20:18 | 35.71138 | 68.36758 | 38837 ft | 430 kts | 327° |
| 2026-05-07 20:19 | 35.76730 | 68.33007 | 38840 ft | 430 kts | 327° |
| 2026-05-07 20:19 | 35.82299 | 68.29267 | 38838 ft | 429 kts | 327° |
| 2026-05-07 20:20 | 35.87796 | 68.25568 | 38838 ft | 429 kts | 327° |
| 2026-05-07 20:20 | 35.93331 | 68.21837 | 38838 ft | 429 kts | 327° |
| 2026-05-07 20:21 | 35.98853 | 68.18109 | 38838 ft | 429 kts | 327° |
| 2026-05-07 20:21 | 36.04302 | 68.14426 | 38843 ft | 430 kts | 327° |
| 2026-05-07 20:22 | 36.09600 | 68.10835 | 38878 ft | 429 kts | 327° |
| 2026-05-07 20:22 | 36.14838 | 68.07282 | 38902 ft | 429 kts | 327° |
| 2026-05-07 20:23 | 36.20084 | 68.03718 | 38913 ft | 429 kts | 327° |
| 2026-05-07 20:23 | 36.25380 | 68.00114 | 38918 ft | 429 kts | 327° |
| 2026-05-07 20:24 | 36.30600 | 67.96556 | 38921 ft | 429 kts | 327° |
| 2026-05-07 20:24 | 36.35826 | 67.92989 | 38921 ft | 429 kts | 327° |
| 2026-05-07 20:25 | 36.41169 | 67.89335 | 38921 ft | 429 kts | 327° |
| 2026-05-07 20:25 | 36.46468 | 67.85706 | 38920 ft | 429 kts | 327° |
| 2026-05-07 20:26 | 36.51707 | 67.82112 | 38922 ft | 429 kts | 327° |
| 2026-05-07 20:26 | 36.56897 | 67.78545 | 38921 ft | 429 kts | 327° |
| 2026-05-07 20:27 | 36.67636 | 67.71143 | 38920 ft | 429 kts | 327° |
| 2026-05-07 20:28 | 36.72832 | 67.67558 | 38921 ft | 429 kts | 327° |
| 2026-05-07 20:28 | 36.78055 | 67.63979 | 38921 ft | 429 kts | 327° |
| 2026-05-07 20:29 | 36.83262 | 67.60402 | 38920 ft | 429 kts | 327° |
| 2026-05-07 20:29 | 36.88471 | 67.56811 | 38922 ft | 429 kts | 327° |
| 2026-05-07 20:30 | 36.93676 | 67.53216 | 38920 ft | 429 kts | 327° |
| 2026-05-07 20:30 | 36.98955 | 67.49562 | 38920 ft | 430 kts | 327° |
| 2026-05-07 20:31 | 37.04326 | 67.45837 | 38920 ft | 434 kts | 327° |
| 2026-05-07 20:31 | 37.09612 | 67.42163 | 38919 ft | 439 kts | 327° |
| 2026-05-07 20:32 | 37.15035 | 67.38397 | 38921 ft | 443 kts | 328° |
| 2026-05-07 20:32 | 37.20623 | 67.35026 | 38921 ft | 447 kts | 333° |
| 2026-05-07 20:33 | 37.26657 | 67.32294 | 38741 ft | 452 kts | 339° |
| 2026-05-07 20:33 | 37.29786 | 67.31143 | 38483 ft | 451 kts | 339° |
| 2026-05-07 20:33 | 37.32905 | 67.30031 | 38226 ft | 451 kts | 339° |
| 2026-05-07 20:33 | 37.36079 | 67.28902 | 37965 ft | 451 kts | 339° |
| 2026-05-07 20:34 | 37.39175 | 67.27799 | 37710 ft | 451 kts | 339° |
| 2026-05-07 20:34 | 37.42327 | 67.26673 | 37451 ft | 451 kts | 339° |
| 2026-05-07 20:34 | 37.45421 | 67.25565 | 37196 ft | 451 kts | 339° |
| 2026-05-07 20:34 | 37.48562 | 67.24437 | 36936 ft | 451 kts | 339° |
| 2026-05-07 20:35 | 37.51720 | 67.23302 | 36676 ft | 451 kts | 339° |
| 2026-05-07 20:35 | 37.54879 | 67.22165 | 36416 ft | 451 kts | 339° |
| 2026-05-07 20:35 | 37.58007 | 67.21037 | 36158 ft | 451 kts | 339° |
| 2026-05-07 20:35 | 37.61138 | 67.19908 | 35899 ft | 451 kts | 339° |
| 2026-05-07 20:36 | 37.64287 | 67.18771 | 35639 ft | 452 kts | 339° |
| 2026-05-07 20:36 | 37.67277 | 67.17691 | 35392 ft | 452 kts | 339° |
| 2026-05-07 20:36 | 37.70305 | 67.16595 | 35143 ft | 453 kts | 339° |
| 2026-05-07 20:36 | 37.73325 | 67.15502 | 34945 ft | 454 kts | 339° |
| 2026-05-07 20:37 | 37.75316 | 67.14782 | 34925 ft | 454 kts | 339° |
| 2026-05-07 20:37 | 37.82717 | 67.12097 | 34923 ft | 454 kts | 339° |
| 2026-05-07 20:38 | 37.88905 | 67.09848 | 34923 ft | 455 kts | 339° |
| 2026-05-07 20:38 | 37.95143 | 67.07577 | 34923 ft | 455 kts | 339° |
| 2026-05-07 20:39 | 38.01382 | 67.05302 | 34923 ft | 455 kts | 339° |
| 2026-05-07 20:39 | 38.07568 | 67.03042 | 34923 ft | 455 kts | 339° |
| 2026-05-07 20:40 | 38.13784 | 67.00766 | 34927 ft | 456 kts | 339° |
| 2026-05-07 20:40 | 38.19896 | 66.98525 | 34949 ft | 456 kts | 339° |
| 2026-05-07 20:41 | 38.26006 | 66.96281 | 34981 ft | 456 kts | 339° |
| 2026-05-07 20:41 | 38.32067 | 66.94050 | 35010 ft | 456 kts | 339° |
| 2026-05-07 20:42 | 38.38221 | 66.91782 | 35023 ft | 456 kts | 339° |
| 2026-05-07 20:42 | 38.44356 | 66.89516 | 35030 ft | 455 kts | 339° |
| 2026-05-07 20:43 | 38.50580 | 66.87214 | 35032 ft | 456 kts | 339° |
| 2026-05-07 20:43 | 38.56722 | 66.84937 | 35032 ft | 456 kts | 339° |
| 2026-05-07 20:44 | 38.62862 | 66.82657 | 35033 ft | 456 kts | 339° |
| 2026-05-07 20:44 | 38.68965 | 66.80388 | 35032 ft | 456 kts | 339° |
| 2026-05-07 20:45 | 38.75155 | 66.78082 | 35033 ft | 455 kts | 339° |
| 2026-05-07 20:45 | 38.81436 | 66.75737 | 35033 ft | 456 kts | 339° |
| 2026-05-07 20:46 | 38.87803 | 66.73356 | 35032 ft | 455 kts | 339° |
| 2026-05-07 20:46 | 38.94259 | 66.70933 | 35032 ft | 458 kts | 339° |
| 2026-05-07 20:47 | 39.00449 | 66.68604 | 35031 ft | 461 kts | 339° |
| 2026-05-07 20:47 | 39.06974 | 66.66149 | 35032 ft | 464 kts | 340° |
| 2026-05-07 20:48 | 39.13278 | 66.63779 | 35032 ft | 464 kts | 340° |
| 2026-05-07 20:48 | 39.19757 | 66.61337 | 35032 ft | 464 kts | 340° |
| 2026-05-07 20:49 | 39.26243 | 66.58883 | 35033 ft | 464 kts | 340° |
| 2026-05-07 20:49 | 39.32740 | 66.56420 | 35033 ft | 464 kts | 340° |
| 2026-05-07 20:50 | 39.39314 | 66.53922 | 35033 ft | 464 kts | 340° |
| 2026-05-07 20:50 | 39.45908 | 66.51411 | 35033 ft | 464 kts | 340° |
| 2026-05-07 20:51 | 39.52527 | 66.48884 | 35033 ft | 464 kts | 340° |
| 2026-05-07 20:51 | 39.59042 | 66.46389 | 35032 ft | 464 kts | 340° |
| 2026-05-07 20:52 | 39.65670 | 66.44272 | 35008 ft | 470 kts | 351° |
| 2026-05-07 20:52 | 39.69198 | 66.44372 | 34755 ft | 471 kts | 5° |
| 2026-05-07 20:52 | 39.72563 | 66.45478 | 34492 ft | 475 kts | 18° |
| 2026-05-07 20:52 | 39.75604 | 66.47467 | 34237 ft | 481 kts | 31° |
| 2026-05-07 20:53 | 39.78203 | 66.50201 | 33990 ft | 487 kts | 44° |
| 2026-05-07 20:53 | 39.80335 | 66.53655 | 33742 ft | 491 kts | 56° |
| 2026-05-07 20:53 | 39.82085 | 66.57430 | 33501 ft | 492 kts | 59° |
| 2026-05-07 20:53 | 39.83223 | 66.60023 | 33335 ft | 492 kts | 59° |
| 2026-05-07 20:54 | 39.85435 | 66.65125 | 33008 ft | 492 kts | 59° |
| 2026-05-07 20:54 | 39.87134 | 66.69020 | 32729 ft | 493 kts | 59° |
| 2026-05-07 20:54 | 39.88838 | 66.72896 | 32390 ft | 493 kts | 59° |
| 2026-05-07 20:54 | 39.90532 | 66.76726 | 31947 ft | 494 kts | 59° |
| 2026-05-07 20:55 | 39.92239 | 66.80577 | 31410 ft | 494 kts | 59° |
| 2026-05-07 20:55 | 39.93377 | 66.83141 | 31033 ft | 495 kts | 59° |
| 2026-05-07 20:55 | 39.95705 | 66.88390 | 30328 ft | 492 kts | 59° |
| 2026-05-07 20:55 | 39.97407 | 66.92233 | 29968 ft | 486 kts | 59° |
| 2026-05-07 20:56 | 39.98525 | 66.94756 | 29722 ft | 483 kts | 59° |
| 2026-05-07 20:56 | 40.00175 | 66.98485 | 29349 ft | 478 kts | 59° |
| 2026-05-07 20:56 | 40.02378 | 67.03471 | 28839 ft | 473 kts | 59° |
| 2026-05-07 20:56 | 40.04015 | 67.07180 | 28449 ft | 469 kts | 59° |
| 2026-05-07 20:57 | 40.05631 | 67.10847 | 28062 ft | 465 kts | 59° |
| 2026-05-07 20:57 | 40.07214 | 67.14442 | 27681 ft | 461 kts | 59° |
| 2026-05-07 20:57 | 40.08808 | 67.18066 | 27293 ft | 458 kts | 59° |
| 2026-05-07 20:57 | 40.10379 | 67.21642 | 26910 ft | 454 kts | 59° |
| 2026-05-07 20:58 | 40.11941 | 67.25201 | 26529 ft | 451 kts | 59° |
| 2026-05-07 20:58 | 40.13488 | 67.28733 | 26151 ft | 447 kts | 59° |
| 2026-05-07 20:58 | 40.15025 | 67.32242 | 25775 ft | 444 kts | 59° |
| 2026-05-07 20:58 | 40.16559 | 67.35751 | 25400 ft | 441 kts | 59° |
| 2026-05-07 20:59 | 40.18052 | 67.39168 | 25030 ft | 438 kts | 59° |
| 2026-05-07 20:59 | 40.19552 | 67.42602 | 24656 ft | 435 kts | 59° |
| 2026-05-07 20:59 | 40.21061 | 67.46061 | 24279 ft | 432 kts | 59° |
| 2026-05-07 20:59 | 40.22518 | 67.49410 | 23908 ft | 429 kts | 59° |
| 2026-05-07 21:00 | 40.23991 | 67.52798 | 23530 ft | 426 kts | 59° |
| 2026-05-07 21:00 | 40.24966 | 67.55045 | 23278 ft | 425 kts | 59° |
| 2026-05-07 21:00 | 40.26913 | 67.59548 | 22990 ft | 432 kts | 59° |
| 2026-05-07 21:00 | 40.28388 | 67.62963 | 22984 ft | 436 kts | 59° |
| 2026-05-07 21:01 | 40.29632 | 67.65846 | 22979 ft | 437 kts | 60° |
| 2026-05-07 21:01 | 40.31407 | 67.69961 | 22972 ft | 437 kts | 60° |
| 2026-05-07 21:01 | 40.32924 | 67.73481 | 22967 ft | 437 kts | 60° |
| 2026-05-07 21:01 | 40.33912 | 67.75776 | 22965 ft | 437 kts | 60° |
| 2026-05-07 21:02 | 40.35892 | 67.80377 | 22959 ft | 436 kts | 60° |
| 2026-05-07 21:02 | 40.37374 | 67.83825 | 22683 ft | 436 kts | 60° |
| 2026-05-07 21:02 | 40.38868 | 67.87304 | 21918 ft | 443 kts | 60° |
| 2026-05-07 21:02 | 40.40372 | 67.90810 | 21259 ft | 444 kts | 60° |
| 2026-05-07 21:03 | 40.41893 | 67.94360 | 20779 ft | 441 kts | 60° |
| 2026-05-07 21:03 | 40.42880 | 67.96667 | 20488 ft | 438 kts | 60° |
| 2026-05-07 21:03 | 40.44358 | 68.00124 | 20039 ft | 435 kts | 60° |
| 2026-05-07 21:03 | 40.46321 | 68.04721 | 19427 ft | 431 kts | 60° |
| 2026-05-07 21:04 | 40.47281 | 68.06972 | 19126 ft | 428 kts | 60° |
| 2026-05-07 21:04 | 40.49213 | 68.11504 | 18522 ft | 424 kts | 60° |
| 2026-05-07 21:04 | 40.50648 | 68.14875 | 18069 ft | 421 kts | 60° |
| 2026-05-07 21:04 | 40.52075 | 68.18230 | 17620 ft | 418 kts | 60° |
| 2026-05-07 21:05 | 40.53480 | 68.21538 | 17177 ft | 415 kts | 60° |
| 2026-05-07 21:05 | 40.54870 | 68.24810 | 16737 ft | 412 kts | 60° |
| 2026-05-07 21:05 | 40.56253 | 68.28072 | 16296 ft | 409 kts | 60° |
| 2026-05-07 21:05 | 40.57631 | 68.31327 | 15857 ft | 406 kts | 60° |
| 2026-05-07 21:06 | 40.58998 | 68.34562 | 15420 ft | 403 kts | 60° |
| 2026-05-07 21:06 | 40.60367 | 68.37770 | 14983 ft | 400 kts | 58° |
| 2026-05-07 21:06 | 40.61921 | 68.40807 | 14543 ft | 397 kts | 52° |
| 2026-05-07 21:06 | 40.63686 | 68.43553 | 14114 ft | 394 kts | 46° |
| 2026-05-07 21:07 | 40.65556 | 68.46156 | 13672 ft | 391 kts | 45° |
| 2026-05-07 21:07 | 40.67439 | 68.48716 | 13192 ft | 390 kts | 45° |
| 2026-05-07 21:07 | 40.69385 | 68.51372 | 12915 ft | 382 kts | 45° |
| 2026-05-07 21:07 | 40.71279 | 68.53979 | 12332 ft | 373 kts | 45° |
| 2026-05-07 21:08 | 40.73045 | 68.56422 | 11288 ft | 372 kts | 45° |
| 2026-05-07 21:08 | 40.74775 | 68.58888 | 10511 ft | 362 kts | 47° |
| 2026-05-07 21:08 | 40.75873 | 68.60527 | 10243 ft | 358 kts | 47° |
| 2026-05-07 21:08 | 40.78051 | 68.63810 | 9893 ft | 350 kts | 47° |
| 2026-05-07 21:09 | 40.79646 | 68.66217 | 9885 ft | 336 kts | 48° |
| 2026-05-07 21:09 | 40.81186 | 68.68470 | 9877 ft | 323 kts | 45° |
| 2026-05-07 21:09 | 40.82768 | 68.70480 | 9601 ft | 308 kts | 36° |
| 2026-05-07 21:09 | 40.84565 | 68.71882 | 9435 ft | 297 kts | 24° |
| 2026-05-07 21:10 | 40.86425 | 68.72974 | 9305 ft | 290 kts | 22° |
| 2026-05-07 21:10 | 40.88268 | 68.74025 | 9176 ft | 283 kts | 22° |
| 2026-05-07 21:10 | 40.90038 | 68.75059 | 9048 ft | 276 kts | 23° |
| 2026-05-07 21:10 | 40.91203 | 68.75755 | 8950 ft | 271 kts | 23° |
| 2026-05-07 21:11 | 40.93432 | 68.77113 | 8673 ft | 265 kts | 24° |
| 2026-05-07 21:11 | 40.95118 | 68.78153 | 8236 ft | 270 kts | 24° |
| 2026-05-07 21:11 | 40.98550 | 68.80289 | 7445 ft | 272 kts | 24° |
| 2026-05-07 21:12 | 41.00236 | 68.81345 | 7023 ft | 264 kts | 24° |
| 2026-05-07 21:12 | 41.01875 | 68.82373 | 6578 ft | 259 kts | 24° |
| 2026-05-07 21:12 | 41.03479 | 68.83379 | 6150 ft | 253 kts | 24° |
| 2026-05-07 21:12 | 41.05033 | 68.84353 | 5955 ft | 242 kts | 24° |
| 2026-05-07 21:13 | 41.06568 | 68.85315 | 5794 ft | 244 kts | 24° |
| 2026-05-07 21:13 | 41.08103 | 68.86279 | 5603 ft | 242 kts | 24° |
| 2026-05-07 21:13 | 41.09589 | 68.87212 | 5433 ft | 237 kts | 24° |
| 2026-05-07 21:13 | 41.11087 | 68.88155 | 5251 ft | 233 kts | 24° |
| 2026-05-07 21:14 | 41.12040 | 68.88755 | 5130 ft | 231 kts | 24° |
| 2026-05-07 21:14 | 41.13959 | 68.89964 | 4931 ft | 223 kts | 24° |
| 2026-05-07 21:14 | 41.15328 | 68.90826 | 4891 ft | 215 kts | 24° |
| 2026-05-07 21:14 | 41.16658 | 68.91769 | 4758 ft | 218 kts | 36° |
| 2026-05-07 21:15 | 41.17807 | 68.93068 | 4603 ft | 218 kts | 41° |
| 2026-05-07 21:15 | 41.18913 | 68.94461 | 4451 ft | 217 kts | 43° |
| 2026-05-07 21:15 | 41.19632 | 68.95375 | 4335 ft | 215 kts | 43° |
| 2026-05-07 21:15 | 41.21052 | 68.97168 | 4101 ft | 207 kts | 42° |
| 2026-05-07 21:16 | 41.22041 | 68.98506 | 3963 ft | 198 kts | 56° |
| 2026-05-07 21:16 | 41.22422 | 68.99574 | 3902 ft | 191 kts | 71° |
| 2026-05-07 21:16 | 41.22710 | 69.01241 | 3891 ft | 173 kts | 79° |
| 2026-05-07 21:16 | 41.22895 | 69.02779 | 3889 ft | 168 kts | 81° |
| 2026-05-07 21:17 | 41.23116 | 69.04845 | 3883 ft | 171 kts | 81° |
| 2026-05-07 21:17 | 41.23278 | 69.06377 | 3927 ft | 167 kts | 81° |
| 2026-05-07 21:17 | 41.23390 | 69.07425 | 3763 ft | 171 kts | 81° |
| 2026-05-07 21:17 | 41.23623 | 69.09578 | 3149 ft | 184 kts | 81° |
| 2026-05-07 21:18 | 41.23802 | 69.11225 | 2947 ft | 175 kts | 81° |
| 2026-05-07 21:18 | 41.23971 | 69.12779 | 2887 ft | 164 kts | 81° |
| 2026-05-07 21:18 | 41.24136 | 69.14289 | 2888 ft | 165 kts | 81° |
| 2026-05-07 21:18 | 41.24247 | 69.15299 | 2881 ft | 164 kts | 81° |
| 2026-05-07 21:19 | 41.24408 | 69.16766 | 2691 ft | 158 kts | 81° |
| 2026-05-07 21:19 | 41.24618 | 69.18682 | 2414 ft | 155 kts | 81° |
| 2026-05-07 21:19 | 41.24721 | 69.19624 | 2278 ft | 155 kts | 81° |
| 2026-05-07 21:19 | 41.24876 | 69.21045 | 2070 ft | 154 kts | 81° |
| 2026-05-07 21:20 | 41.25083 | 69.22932 | 1815 ft | 154 kts | 81° |
| 2026-05-07 21:20 | 41.25241 | 69.24332 | 1632 ft | 153 kts | 81° |
| 2026-05-07 21:20 | 41.25341 | 69.25240 | 1530 ft | 153 kts | 81° |
| 2026-05-07 21:20 | 41.25497 | 69.26662 | 1441 ft | 150 kts | 81° |
| 2026-05-07 21:21 | 41.25635 | 69.27922 | 1434 ft | 117 kts | 80° |
| 2026-05-07 21:21 | 41.25724 | 69.28733 | 1433 ft | 65 kts | 82° |
| 2026-05-07 21:21 | 41.25772 | 69.29172 | 1433 ft | 39 kts | 81° |
| 2026-05-07 21:21 | 41.25823 | 69.29635 | 1433 ft | 35 kts | 82° |
| 2026-05-07 21:22 | 41.25857 | 69.29949 | 1433 ft | 32 kts | 82° |
| 2026-05-07 21:22 | 41.25887 | 69.30225 | 1433 ft | 22 kts | 83° |
| 2026-05-07 21:22 | 41.25902 | 69.30344 | 1433 ft | 16 kts | 72° |
| 2026-05-07 21:22 | 41.25984 | 69.30386 | 1433 ft | 7 kts | 0° |
| 2026-05-07 21:23 | 41.26038 | 69.30379 | 1433 ft | 8 kts | 346° |
| 2026-05-07 21:23 | 41.26081 | 69.30328 | 1433 ft | 9 kts | 287° |
| 2026-05-07 21:23 | 41.26082 | 69.30270 | 1433 ft | 9 kts | 263° |
| 2026-05-07 21:23 | 41.26067 | 69.30142 | 1433 ft | 11 kts | 260° |
| 2026-05-07 21:24 | 41.26054 | 69.30028 | 1433 ft | 13 kts | 262° |
| 2026-05-07 21:24 | 41.26045 | 69.29939 | 1433 ft | 14 kts | 262° |
| 2026-05-07 21:24 | 41.26029 | 69.29793 | 1433 ft | 16 kts | 262° |
| 2026-05-07 21:24 | 41.26013 | 69.29635 | 1433 ft | 17 kts | 261° |
| 2026-05-07 21:25 | 41.25994 | 69.29467 | 1433 ft | 19 kts | 262° |
| 2026-05-07 21:25 | 41.25976 | 69.29290 | 1433 ft | 19 kts | 263° |
| 2026-05-07 21:25 | 41.25957 | 69.29114 | 1433 ft | 19 kts | 261° |
| 2026-05-07 21:25 | 41.25929 | 69.28883 | 1433 ft | 18 kts | 262° |
| 2026-05-07 21:26 | 41.25911 | 69.28713 | 1433 ft | 18 kts | 262° |
| 2026-05-07 21:26 | 41.25893 | 69.28547 | 1433 ft | 18 kts | 261° |
| 2026-05-07 21:26 | 41.25874 | 69.28378 | 1433 ft | 18 kts | 261° |
| 2026-05-07 21:26 | 41.25862 | 69.28266 | 1433 ft | 17 kts | 261° |
| 2026-05-07 21:27 | 41.25837 | 69.28042 | 1433 ft | 17 kts | 261° |
| 2026-05-07 21:27 | 41.25825 | 69.27933 | 1433 ft | 17 kts | 261° |
| 2026-05-07 21:27 | 41.25806 | 69.27773 | 1433 ft | 17 kts | 261° |
| 2026-05-07 21:27 | 41.25791 | 69.27612 | 1433 ft | 17 kts | 268° |
| 2026-05-07 21:28 | 41.25852 | 69.27485 | 1433 ft | 16 kts | 317° |
| 2026-05-07 21:28 | 41.25962 | 69.27360 | 1433 ft | 10 kts | 319° |
| 2026-05-07 21:28 | 41.25983 | 69.27316 | 1433 ft | 6 kts | 281° |
| 2026-05-07 21:28 | 41.25983 | 69.27250 | 1433 ft | 6 kts | 262° |
| 2026-05-07 21:29 | 41.25980 | 69.27216 | 1433 ft | 1 kts | 263° |
| 2026-05-07 21:29 | 41.25979 | 69.27212 | 1433 ft | 0 kts | 263° |